createdAt,value
2018-08-10T00:00:48.628Z,1.20
2018-08-10T00:03:17.068Z,1.40
2018-08-10T00:05:45.479Z,1.42
2018-08-10T00:08:13.925Z,1.42
2018-08-10T00:10:42.418Z,1.75
2018-08-10T00:13:10.929Z,1.20
2018-08-10T00:15:39.392Z,1.12
2018-08-10T00:18:07.855Z,1.20
2018-08-10T00:20:36.288Z,1.30
2018-08-10T00:23:04.768Z,1.55
2018-08-10T00:25:33.225Z,1.30
2018-08-10T00:28:01.729Z,1.45
2018-08-10T00:30:30.193Z,1.30
2018-08-10T00:32:58.661Z,1.77
2018-08-10T00:35:27.119Z,1.47
2018-08-10T00:37:55.565Z,1.10
2018-08-10T00:40:24.361Z,1.25
2018-08-10T00:42:52.828Z,0.98
2018-08-10T00:45:21.365Z,1.02
2018-08-10T00:47:50.081Z,1.40
2018-08-10T00:50:18.890Z,1.22
2018-08-10T00:52:47.956Z,1.55
2018-08-10T00:55:17.685Z,1.60
2018-08-10T00:57:46.652Z,1.40
2018-08-10T01:00:20.574Z,1.22
2018-08-10T01:02:49.162Z,1.50
2018-08-10T01:05:17.353Z,1.20
2018-08-10T01:07:45.863Z,1.72
2018-08-10T01:10:16.515Z,1.40
2018-08-10T01:12:45.011Z,1.70
2018-08-10T01:15:15.028Z,1.05
2018-08-10T01:17:44.010Z,1.22
2018-08-10T01:20:27.165Z,0.95
2018-08-10T01:23:00.973Z,1.00
2018-08-10T01:25:29.464Z,1.17
2018-08-10T01:28:00.241Z,1.17
2018-08-10T01:30:29.892Z,1.50
2018-08-10T01:32:58.859Z,1.20
2018-08-10T01:35:27.842Z,1.95
2018-08-10T01:37:57.316Z,1.70
2018-08-10T01:40:25.865Z,1.50
2018-08-10T01:42:54.488Z,1.60
2018-08-10T01:45:23.077Z,1.77
2018-08-10T01:47:51.608Z,1.55
2018-08-10T01:50:20.140Z,1.27
2018-08-10T01:52:48.589Z,1.40
2018-08-10T01:55:17.103Z,1.57
2018-08-10T01:57:45.552Z,1.60
2018-08-10T02:00:14.045Z,1.60
2018-08-10T02:02:42.519Z,1.95
2018-08-10T02:05:12.856Z,1.40
2018-08-10T02:07:41.330Z,2.22
2018-08-10T02:10:13.879Z,1.60
2018-08-10T02:12:43.176Z,1.27
2018-08-10T02:15:13.417Z,1.70
2018-08-10T02:17:41.584Z,1.47
2018-08-10T02:20:14.897Z,1.80
2018-08-10T02:22:43.546Z,1.65
2018-08-10T02:25:13.373Z,2.17
2018-08-10T02:27:42.953Z,1.82
2018-08-10T02:30:12.871Z,1.52
2018-08-10T02:32:42.312Z,1.50
2018-08-10T02:35:10.977Z,1.20
2018-08-10T02:37:39.929Z,1.87
2018-08-10T02:40:15.495Z,2.08
2018-08-10T02:42:45.398Z,1.65
2018-08-10T02:45:13.999Z,2.20
2018-08-10T02:47:42.523Z,1.90
2018-08-10T02:50:11.037Z,1.80
2018-08-10T02:55:52.515Z,1.75
2018-08-10T02:58:20.898Z,1.90
2018-08-10T03:00:49.336Z,1.90
2018-08-10T03:03:17.769Z,1.62
2018-08-10T03:05:46.273Z,2.27
2018-08-10T03:08:14.658Z,1.37
2018-08-10T03:10:43.089Z,1.32
2018-08-10T03:13:11.483Z,1.20
2018-08-10T03:15:39.932Z,1.10
2018-08-10T03:18:08.389Z,1.22
2018-08-10T03:20:36.833Z,1.15
2018-08-10T03:23:05.572Z,1.50
2018-08-10T03:25:34.026Z,1.20
2018-08-10T03:28:02.468Z,1.20
2018-08-10T03:30:30.901Z,1.52
2018-08-10T03:32:59.386Z,1.42
2018-08-10T03:35:27.802Z,1.42
2018-08-10T03:37:56.251Z,1.35
2018-08-10T03:40:24.633Z,1.60
2018-08-10T03:42:53.106Z,1.42
2018-08-10T03:45:21.539Z,1.40
2018-08-10T03:47:50.037Z,1.57
2018-08-10T03:50:18.456Z,1.45
2018-08-10T03:52:46.883Z,2.42
2018-08-10T03:55:15.313Z,1.42
2018-08-10T03:57:43.722Z,1.60
2018-08-10T04:00:13.561Z,2.00
2018-08-10T04:02:42.178Z,1.20
2018-08-10T04:05:11.458Z,1.30
2018-08-10T04:07:40.045Z,1.40
2018-08-10T04:10:09.412Z,1.47
2018-08-10T04:12:38.043Z,1.25
2018-08-10T04:15:08.648Z,1.62
2018-08-10T04:17:37.075Z,1.30
2018-08-10T04:20:06.221Z,1.50
2018-08-10T04:22:34.668Z,1.40
2018-08-10T04:25:03.165Z,1.47
2018-08-10T04:27:31.605Z,2.30
2018-08-10T04:30:00.000Z,1.98
2018-08-10T04:32:28.649Z,2.67
2018-08-10T04:34:57.153Z,3.12
2018-08-10T04:37:25.561Z,3.52
2018-08-10T04:39:54.865Z,3.65
2018-08-10T04:42:23.406Z,3.90
2018-08-10T04:44:51.850Z,3.05
2018-08-10T04:47:20.357Z,3.02
2018-08-10T04:49:48.753Z,3.20
2018-08-10T04:52:17.280Z,2.17
2018-08-10T04:54:45.722Z,1.67
2018-08-10T04:57:13.868Z,1.75
2018-08-10T04:59:41.996Z,1.87
2018-08-10T05:02:10.510Z,1.65
2018-08-10T05:04:38.953Z,1.37
2018-08-10T05:07:07.394Z,1.57
2018-08-10T05:09:35.860Z,1.57
2018-08-10T05:12:04.313Z,1.40
2018-08-10T05:14:32.752Z,1.45
2018-08-10T05:17:01.173Z,1.60
2018-08-10T05:19:29.634Z,1.40
2018-08-10T05:21:58.077Z,1.67
2018-08-10T05:24:26.560Z,1.50
2018-08-10T05:26:54.977Z,1.92
2018-08-10T05:29:23.441Z,1.95
2018-08-10T05:31:51.866Z,2.80
2018-08-10T05:34:20.317Z,2.70
2018-08-10T05:36:48.884Z,2.90
2018-08-10T05:39:17.434Z,1.90
2018-08-10T05:41:45.520Z,1.95
2018-08-10T05:44:13.939Z,2.47
2018-08-10T05:46:42.395Z,2.35
2018-08-10T05:49:11.658Z,2.00
2018-08-10T05:51:40.048Z,2.15
2018-08-10T05:54:08.483Z,1.98
2018-08-10T05:56:36.895Z,2.80
2018-08-10T05:59:05.313Z,2.45
2018-08-10T06:01:33.720Z,3.45
2018-08-10T06:04:02.393Z,2.37
2018-08-10T06:06:30.652Z,1.50
2018-08-10T06:08:59.058Z,1.90
2018-08-10T06:11:27.557Z,1.82
2018-08-10T06:13:55.997Z,1.85
2018-08-10T06:16:24.394Z,1.87
2018-08-10T06:18:53.103Z,1.82
2018-08-10T06:21:21.497Z,1.87
2018-08-10T06:23:49.931Z,1.90
2018-08-10T06:26:18.378Z,1.70
2018-08-10T06:28:46.816Z,1.60
2018-08-10T06:31:15.265Z,1.80
2018-08-10T06:33:43.640Z,1.67
2018-08-10T06:36:12.450Z,1.72
2018-08-10T06:38:40.980Z,1.77
2018-08-10T06:41:09.753Z,1.90
2018-08-10T06:43:38.153Z,1.70
2018-08-10T06:46:06.747Z,1.60
2018-08-10T06:48:35.217Z,1.80
2018-08-10T06:51:03.815Z,1.75
2018-08-10T06:53:32.571Z,1.40
2018-08-10T06:56:01.117Z,1.00
2018-08-10T06:58:29.254Z,0.93
2018-08-10T07:00:57.772Z,0.95
2018-08-10T07:03:26.173Z,0.70
2018-08-10T07:05:54.609Z,1.37
2018-08-10T07:08:22.997Z,0.98
2018-08-10T07:10:51.472Z,0.80
2018-08-10T07:13:20.004Z,1.00
2018-08-10T07:15:48.469Z,1.10
2018-08-10T07:18:16.845Z,0.60
2018-08-10T07:20:45.351Z,0.60
2018-08-10T07:23:13.793Z,0.53
2018-08-10T07:25:42.224Z,0.62
2018-08-10T07:28:10.731Z,0.70
2018-08-10T07:30:39.372Z,0.70
2018-08-10T07:33:07.830Z,0.55
2018-08-10T07:35:36.269Z,0.80
2018-08-10T07:38:04.725Z,0.60
2018-08-10T07:40:33.178Z,0.50
2018-08-10T07:43:01.658Z,0.60
2018-08-10T07:45:30.109Z,0.50
2018-08-10T07:47:58.549Z,0.55
2018-08-10T07:50:27.019Z,0.65
2018-08-10T07:52:55.425Z,0.53
2018-08-10T07:55:23.911Z,0.60
2018-08-10T07:57:52.361Z,0.40
2018-08-10T08:00:20.845Z,0.70
2018-08-10T08:02:48.980Z,0.62
2018-08-10T08:05:17.539Z,0.60
2018-08-10T08:07:45.962Z,0.78
2018-08-10T08:10:14.502Z,0.60
2018-08-10T08:12:42.956Z,0.50
2018-08-10T08:15:11.431Z,0.40
2018-08-10T08:17:39.956Z,0.50
2018-08-10T08:20:08.901Z,0.50
2018-08-10T08:22:37.495Z,0.40
2018-08-10T08:25:06.353Z,0.50
2018-08-10T08:27:34.881Z,0.37
2018-08-10T08:30:03.509Z,0.40
2018-08-10T08:32:31.968Z,0.50
2018-08-10T08:35:00.560Z,0.53
2018-08-10T08:37:28.982Z,0.50
2018-08-10T08:40:16.261Z,0.30
2018-08-10T08:42:45.888Z,0.57
2018-08-10T08:45:57.541Z,0.50
2018-08-10T08:48:26.756Z,0.50
2018-08-10T08:50:58.605Z,0.50
2018-08-10T08:53:27.028Z,0.50
2018-08-10T08:55:58.041Z,0.50
2018-08-10T08:58:26.622Z,0.70
2018-08-10T09:00:55.128Z,0.40
2018-08-10T09:03:35.333Z,0.40
2018-08-10T09:06:04.266Z,0.40
2018-08-10T09:08:32.742Z,0.68
2018-08-10T09:11:02.570Z,0.60
2018-08-10T09:14:41.467Z,0.50
2018-08-10T09:17:10.373Z,0.70
2018-08-10T09:19:39.315Z,0.78
2018-08-10T09:22:07.769Z,0.60
2018-08-10T09:24:36.271Z,0.93
2018-08-10T09:27:04.832Z,0.68
2018-08-10T09:29:34.042Z,0.53
2018-08-10T09:32:02.739Z,0.50
2018-08-10T09:34:31.252Z,0.50
2018-08-10T09:37:00.354Z,0.40
2018-08-10T09:39:29.196Z,0.55
2018-08-10T09:41:58.399Z,0.68
2018-08-10T09:44:26.951Z,0.60
2018-08-10T09:46:55.676Z,0.50
2018-08-10T09:49:24.233Z,0.53
2018-08-10T09:51:52.750Z,0.50
2018-08-10T09:54:21.183Z,0.50
2018-08-10T09:56:49.641Z,0.55
2018-08-10T09:59:18.117Z,0.50
2018-08-10T10:01:51.745Z,1.50
2018-08-10T10:04:20.226Z,0.50
2018-08-10T10:06:48.658Z,0.50
2018-08-10T10:09:17.096Z,0.50
2018-08-10T10:11:45.241Z,0.55
2018-08-10T10:14:13.669Z,0.40
2018-08-10T10:16:42.131Z,0.40
2018-08-10T10:19:10.584Z,0.40
2018-08-10T10:21:39.061Z,0.30
2018-08-10T10:24:07.582Z,0.20
2018-08-10T10:26:36.086Z,0.35
2018-08-10T10:29:04.590Z,0.20
2018-08-10T10:31:33.015Z,0.35
2018-08-10T10:34:01.507Z,0.10
2018-08-10T10:36:29.929Z,0.20
2018-08-10T10:38:58.412Z,0.20
2018-08-10T10:41:26.872Z,0.30
2018-08-10T10:43:55.293Z,0.13
2018-08-10T10:46:23.689Z,0.25
2018-08-10T10:48:52.204Z,0.20
2018-08-10T10:51:20.666Z,0.20
2018-08-10T10:53:49.132Z,0.20
2018-08-10T10:56:17.911Z,0.20
2018-08-10T10:58:46.383Z,0.30
2018-08-10T11:01:14.823Z,0.20
2018-08-10T11:03:43.248Z,0.40
2018-08-10T11:06:11.683Z,0.37
2018-08-10T11:08:40.177Z,0.47
2018-08-10T11:11:08.589Z,0.30
2018-08-10T11:13:37.023Z,0.40
2018-08-10T11:16:05.500Z,0.30
2018-08-10T11:18:34.129Z,0.45
2018-08-10T11:21:02.567Z,0.40
2018-08-10T11:23:31.034Z,0.50
2018-08-10T11:25:59.551Z,0.53
2018-08-10T11:28:27.991Z,0.30
2018-08-10T11:30:56.413Z,0.30
2018-08-10T11:33:24.857Z,0.50
2018-08-10T11:35:53.315Z,0.47
2018-08-10T11:38:21.781Z,0.40
2018-08-10T11:40:50.250Z,0.53
2018-08-10T11:43:18.653Z,0.70
2018-08-10T11:45:47.124Z,0.40
2018-08-10T11:48:15.661Z,0.40
2018-08-10T11:50:44.115Z,0.53
2018-08-10T11:53:12.551Z,0.42
2018-08-10T11:55:41.005Z,0.45
2018-08-10T11:58:09.464Z,1.30
2018-08-10T12:00:37.965Z,0.50
2018-08-10T12:03:06.705Z,0.50
2018-08-10T12:05:35.129Z,0.60
2018-08-10T12:08:03.588Z,0.40
2018-08-10T12:10:32.053Z,0.60
2018-08-10T12:13:00.465Z,0.40
2018-08-10T12:15:28.928Z,0.60
2018-08-10T12:17:57.520Z,0.50
2018-08-10T12:20:26.003Z,0.60
2018-08-10T12:22:54.402Z,0.57
2018-08-10T12:25:22.845Z,0.42
2018-08-10T12:27:51.256Z,0.50
2018-08-10T12:30:19.815Z,0.60
2018-08-10T12:32:48.241Z,0.60
2018-08-10T12:35:16.697Z,0.50
2018-08-10T12:37:45.133Z,0.60
2018-08-10T12:40:13.588Z,0.30
2018-08-10T12:42:41.993Z,0.40
2018-08-10T12:45:10.480Z,0.50
2018-08-10T12:47:39.250Z,0.40
2018-08-10T12:50:08.432Z,0.50
2018-08-10T12:52:36.879Z,0.57
2018-08-10T12:55:05.412Z,0.53
2018-08-10T12:57:33.915Z,0.62
2018-08-10T13:00:02.365Z,0.50
2018-08-10T13:02:30.862Z,0.33
2018-08-10T13:04:59.344Z,0.45
2018-08-10T13:07:27.774Z,0.50
2018-08-10T13:09:56.204Z,0.37
2018-08-10T13:12:24.645Z,0.50
2018-08-10T13:14:52.784Z,0.45
2018-08-10T13:17:21.222Z,0.50
2018-08-10T13:19:49.713Z,0.40
2018-08-10T13:22:18.116Z,0.42
2018-08-10T13:24:46.534Z,0.47
2018-08-10T13:27:15.037Z,0.53
2018-08-10T13:29:43.485Z,0.50
2018-08-10T13:32:12.000Z,0.40
2018-08-10T13:34:40.430Z,0.47
2018-08-10T13:37:08.892Z,0.60
2018-08-10T13:39:37.356Z,0.68
2018-08-10T13:42:05.920Z,0.40
2018-08-10T13:44:34.428Z,0.60
2018-08-10T13:47:02.959Z,0.40
2018-08-10T13:49:31.381Z,0.60
2018-08-10T13:51:59.850Z,0.42
2018-08-10T13:54:28.294Z,0.70
2018-08-10T13:56:56.949Z,0.70
2018-08-10T13:59:25.380Z,0.68
2018-08-10T14:01:53.891Z,0.75
2018-08-10T14:04:22.514Z,0.75
2018-08-10T14:06:51.290Z,1.15
2018-08-10T14:09:19.768Z,1.02
2018-08-10T14:11:48.249Z,0.60
2018-08-10T14:14:16.731Z,0.82
2018-08-10T14:16:45.266Z,0.60
2018-08-10T14:19:13.870Z,0.65
2018-08-10T14:21:42.067Z,0.68
2018-08-10T14:24:10.613Z,0.65
2018-08-10T14:26:39.121Z,0.78
2018-08-10T14:29:07.599Z,0.75
2018-08-10T14:31:36.091Z,1.00
2018-08-10T14:34:04.543Z,1.20
2018-08-10T14:36:32.986Z,0.80
2018-08-10T14:39:01.543Z,1.02
2018-08-10T14:41:29.997Z,0.70
2018-08-10T14:43:58.536Z,0.80
2018-08-10T14:46:27.163Z,0.75
2018-08-10T14:48:55.768Z,0.98
2018-08-10T14:51:24.228Z,0.90
2018-08-10T14:53:52.747Z,0.70
2018-08-10T14:56:21.195Z,1.00
2018-08-10T14:58:49.640Z,1.32
2018-08-10T15:01:18.085Z,1.00
2018-08-10T15:03:46.532Z,0.60
2018-08-10T15:06:15.027Z,0.80
2018-08-10T15:08:43.477Z,0.70
2018-08-10T15:11:11.945Z,0.85
2018-08-10T15:13:40.409Z,0.80
2018-08-10T15:16:08.866Z,0.53
2018-08-10T15:18:37.325Z,0.90
2018-08-10T15:21:05.748Z,0.82
2018-08-10T15:23:34.230Z,1.20
2018-08-10T15:26:02.779Z,1.20
2018-08-10T15:28:31.478Z,1.50
2018-08-10T15:30:59.901Z,1.50
2018-08-10T15:33:28.353Z,1.20
2018-08-10T15:35:56.784Z,1.07
2018-08-10T15:38:25.293Z,1.00
2018-08-10T15:40:53.716Z,1.55
2018-08-10T15:43:22.214Z,1.60
2018-08-10T15:45:50.696Z,1.15
2018-08-10T15:48:19.270Z,1.27
2018-08-10T15:50:47.756Z,1.55
2018-08-10T15:53:16.221Z,1.32
2018-08-10T15:55:44.704Z,1.00
2018-08-10T15:58:12.862Z,1.37
2018-08-10T16:00:41.392Z,1.00
2018-08-10T16:03:09.918Z,1.55
2018-08-10T16:05:38.385Z,1.00
2018-08-10T16:08:06.876Z,1.05
2018-08-10T16:10:35.314Z,1.12
2018-08-10T16:13:03.773Z,1.40
2018-08-10T16:15:32.290Z,1.32
2018-08-10T16:18:00.785Z,1.17
2018-08-10T16:20:29.234Z,1.40
2018-08-10T16:22:57.768Z,1.47
2018-08-10T16:25:26.280Z,1.57
2018-08-10T16:27:54.789Z,1.65
2018-08-10T16:30:23.298Z,2.08
2018-08-10T16:32:51.896Z,1.98
2018-08-10T16:35:20.385Z,2.75
2018-08-10T16:37:48.906Z,2.40
2018-08-10T16:40:18.489Z,1.98
2018-08-10T16:42:46.983Z,2.17
2018-08-10T16:45:15.584Z,2.77
2018-08-10T16:47:44.203Z,3.10
2018-08-10T16:50:14.479Z,3.22
2018-08-10T16:52:43.723Z,3.33
2018-08-10T16:55:14.411Z,4.05
2018-08-10T16:57:43.450Z,3.95
2018-08-10T17:01:37.229Z,3.90
2018-08-10T17:04:05.712Z,4.28
2018-08-10T17:06:34.268Z,4.53
2018-08-10T17:09:02.732Z,4.40
2018-08-10T17:11:31.219Z,5.08
2018-08-10T17:13:59.349Z,4.97
2018-08-10T17:16:27.781Z,4.67
2018-08-10T17:18:56.245Z,4.00
2018-08-10T17:21:24.676Z,4.65
2018-08-10T17:23:53.184Z,4.90
2018-08-10T17:26:21.607Z,4.55
2018-08-10T17:28:50.068Z,4.70
2018-08-10T17:31:18.521Z,4.60
2018-08-10T17:33:47.032Z,4.92
2018-08-10T17:36:15.541Z,5.65
2018-08-10T17:38:44.029Z,5.33
2018-08-10T17:41:12.558Z,5.55
2018-08-10T17:43:41.049Z,5.37
2018-08-10T17:46:09.504Z,5.50
2018-08-10T17:48:38.009Z,16.55
2018-08-10T17:51:06.463Z,5.60
2018-08-10T17:53:34.973Z,5.20
2018-08-10T17:56:03.472Z,5.45
2018-08-10T17:58:31.989Z,5.67
2018-08-10T18:01:00.462Z,5.20
2018-08-10T18:03:28.910Z,5.87
2018-08-10T18:05:57.360Z,5.90
2018-08-10T18:08:25.790Z,5.92
2018-08-10T18:10:54.343Z,5.70
2018-08-10T18:13:22.793Z,5.30
2018-08-10T18:15:51.288Z,5.83
2018-08-10T18:18:19.780Z,4.75
2018-08-10T18:20:48.261Z,5.20
2018-08-10T18:23:16.724Z,5.58
2018-08-10T18:25:45.188Z,5.62
2018-08-10T18:28:13.699Z,6.08
2018-08-10T18:30:42.290Z,8.05
2018-08-10T18:33:10.778Z,6.75
2018-08-10T18:35:39.273Z,6.12
2018-08-10T18:38:08.024Z,7.08
2018-08-10T18:40:36.585Z,5.75
2018-08-10T18:43:05.258Z,5.78
2018-08-10T18:45:33.774Z,6.45
2018-08-10T18:48:02.261Z,6.58
2018-08-10T18:50:30.492Z,6.70
2018-08-10T18:52:58.905Z,6.42
2018-08-10T18:55:27.385Z,7.15
2018-08-10T18:57:55.949Z,7.45
2018-08-10T19:00:26.501Z,7.30
2018-08-10T19:02:55.357Z,7.17
2018-08-10T19:05:23.866Z,6.70
2018-08-10T19:07:52.361Z,7.05
2018-08-10T19:10:23.049Z,8.20
2018-08-10T19:12:51.494Z,7.45
2018-08-10T19:15:20.018Z,6.62
2018-08-10T19:17:48.664Z,7.03
2018-08-10T19:20:17.308Z,7.58
2018-08-10T19:22:46.253Z,7.53
2018-08-10T19:25:15.380Z,7.62
2018-08-10T19:27:43.878Z,7.30
2018-08-10T19:30:15.752Z,7.42
2018-08-10T19:32:45.204Z,8.45
2018-08-10T19:35:13.735Z,8.90
2018-08-10T19:37:42.179Z,8.38
2018-08-10T19:40:13.578Z,8.05
2018-08-10T19:42:42.257Z,7.85
2018-08-10T19:45:12.200Z,8.80
2018-08-10T19:47:40.889Z,7.78
2018-08-10T19:50:10.668Z,8.93
2018-08-10T19:52:39.152Z,8.90
2018-08-10T19:55:09.573Z,8.50
2018-08-10T19:57:38.498Z,9.40
2018-08-10T20:00:07.981Z,9.03
2018-08-10T20:02:36.607Z,9.23
2018-08-10T20:05:06.550Z,8.48
2018-08-10T20:07:35.052Z,9.03
2018-08-10T20:10:03.877Z,8.70
2018-08-10T20:12:32.333Z,8.10
2018-08-10T20:15:00.782Z,8.85
2018-08-10T20:17:29.270Z,8.45
2018-08-10T20:19:57.746Z,9.05
2018-08-10T20:22:26.316Z,8.13
2018-08-10T20:24:54.868Z,8.48
2018-08-10T20:27:23.333Z,8.38
2018-08-10T20:29:51.753Z,7.83
2018-08-10T20:32:20.273Z,8.85
2018-08-10T20:34:48.748Z,7.95
2018-08-10T20:38:46.471Z,7.47
2018-08-10T20:41:15.217Z,7.72
2018-08-10T20:43:43.645Z,7.37
2018-08-10T20:46:12.116Z,7.65
2018-08-10T20:48:40.713Z,8.38
2018-08-10T20:51:09.180Z,7.22
2018-08-10T20:53:37.635Z,7.97
2018-08-10T20:56:06.244Z,6.90
2018-08-10T20:58:34.861Z,6.97
2018-08-10T21:01:03.321Z,8.23
2018-08-10T21:03:31.982Z,7.08
2018-08-10T21:06:00.483Z,7.97
2018-08-10T21:08:29.231Z,7.80
2018-08-10T21:10:57.737Z,7.12
2018-08-10T21:13:26.337Z,7.70
2018-08-10T21:15:54.787Z,6.92
2018-08-10T21:18:23.329Z,7.05
2018-08-10T21:20:51.792Z,7.22
2018-08-10T21:23:20.225Z,7.05
2018-08-10T21:25:48.704Z,7.75
2018-08-10T21:28:17.295Z,7.15
2018-08-10T21:30:45.765Z,7.70
2018-08-10T21:33:14.238Z,7.05
2018-08-10T21:35:42.642Z,7.03
2018-08-10T21:38:11.120Z,6.90
2018-08-10T21:40:39.605Z,7.33
2018-08-10T21:43:08.126Z,7.40
2018-08-10T21:45:36.568Z,8.18
2018-08-10T21:48:05.065Z,8.38
2018-08-10T21:50:33.501Z,7.78
2018-08-10T21:53:01.978Z,7.92
2018-08-10T21:55:30.393Z,7.40
2018-08-10T21:57:58.860Z,7.35
2018-08-10T22:00:46.904Z,7.30
2018-08-10T22:03:15.369Z,7.92
2018-08-10T22:05:43.798Z,7.60
2018-08-10T22:08:12.297Z,7.35
2018-08-10T22:10:40.957Z,7.53
2018-08-10T22:13:13.635Z,6.95
2018-08-10T22:15:47.385Z,6.80
2018-08-10T22:18:21.069Z,6.90
2018-08-10T22:20:49.494Z,6.85
2018-08-10T22:23:17.648Z,6.53
2018-08-10T22:25:46.082Z,7.12
2018-08-10T22:28:14.650Z,6.70
2018-08-10T22:30:43.084Z,8.78
2018-08-10T22:33:11.594Z,6.62
2018-08-10T22:35:40.273Z,6.45
2018-08-10T22:38:08.864Z,6.80
2018-08-10T22:40:37.290Z,5.78
2018-08-10T22:43:05.895Z,5.95
2018-08-10T22:45:34.313Z,5.75
2018-08-10T22:48:02.774Z,6.03
2018-08-10T22:50:31.195Z,6.42
2018-08-10T22:52:59.673Z,6.30
2018-08-10T22:55:28.084Z,5.87
2018-08-10T22:57:56.877Z,6.87
2018-08-10T23:00:25.335Z,5.65
2018-08-10T23:02:53.773Z,6.20
2018-08-10T23:05:22.263Z,5.95
2018-08-10T23:07:50.738Z,6.22
2018-08-10T23:10:19.174Z,5.37
2018-08-10T23:12:47.599Z,5.15
2018-08-10T23:15:16.033Z,5.40
2018-08-10T23:17:44.493Z,5.20
2018-08-10T23:20:14.154Z,5.35
2018-08-10T23:22:42.583Z,5.70
2018-08-10T23:25:13.068Z,6.03
2018-08-10T23:27:42.600Z,5.00
2018-08-10T23:30:13.150Z,4.95
2018-08-10T23:32:41.605Z,5.08
2018-08-10T23:35:10.081Z,4.90
2018-08-10T23:37:38.765Z,5.00
2018-08-10T23:40:11.048Z,4.67
2018-08-10T23:42:39.609Z,5.37
2018-08-10T23:45:09.648Z,4.92
2018-08-10T23:47:38.225Z,4.95
2018-08-10T23:50:09.577Z,5.50
2018-08-10T23:52:38.233Z,4.37
2018-08-10T23:55:08.314Z,4.28
2018-08-10T23:57:37.563Z,4.10
